sensor_id;sensor_type;location;lat;lon;timestamp;pressure;altitude;pressure_sealevel;temperature;humidity
2761;BME280;15420;48.636;9.798;2023-03-13T00:01:45;96267.47;;;7.98;100.00
2761;BME280;15420;48.636;9.798;2023-03-13T00:04:21;96281.06;;;7.94;100.00
2761;BME280;15420;48.636;9.798;2023-03-13T00:06:47;96275.00;;;7.90;100.00
2761;BME280;15420;48.636;9.798;2023-03-13T00:09:16;96277.44;;;7.84;100.00
2761;BME280;15420;48.636;9.798;2023-03-13T00:11:48;96274.78;;;7.81;100.00
2761;BME280;15420;48.636;9.798;2023-03-13T00:14:14;96269.69;;;7.82;100.00
2761;BME280;15420;48.636;9.798;2023-03-13T00:16:43;96266.22;;;7.80;100.00
2761;BME280;15420;48.636;9.798;2023-03-13T00:19:09;96264.53;;;7.81;100.00
2761;BME280;15420;48.636;9.798;2023-03-13T00:21:35;96263.56;;;7.76;100.00
2761;BME280;15420;48.636;9.798;2023-03-13T00:24:03;96260.13;;;7.75;100.00
2761;BME280;15420;48.636;9.798;2023-03-13T00:26:30;96255.78;;;7.73;100.00
2761;BME280;15420;48.636;9.798;2023-03-13T00:28:59;96259.22;;;7.73;100.00
2761;BME280;15420;48.636;9.798;2023-03-13T00:31:29;96259.94;;;7.68;100.00
2761;BME280;15420;48.636;9.798;2023-03-13T00:34:02;96257.38;;;7.68;100.00
2761;BME280;15420;48.636;9.798;2023-03-13T00:36:33;96265.03;;;7.66;100.00
2761;BME280;15420;48.636;9.798;2023-03-13T00:38:59;96258.22;;;7.67;100.00
2761;BME280;15420;48.636;9.798;2023-03-13T00:41:30;96261.56;;;7.64;100.00
2761;BME280;15420;48.636;9.798;2023-03-13T00:43:57;96259.09;;;7.67;100.00
2761;BME280;15420;48.636;9.798;2023-03-13T00:46:27;96257.31;;;7.65;100.00
2761;BME280;15420;48.636;9.798;2023-03-13T00:48:55;96250.53;;;7.67;100.00
2761;BME280;15420;48.636;9.798;2023-03-13T00:51:27;96251.38;;;7.67;100.00
2761;BME280;15420;48.636;9.798;2023-03-13T00:53:56;96241.97;;;7.66;100.00
2761;BME280;15420;48.636;9.798;2023-03-13T00:56:28;96242.78;;;7.65;100.00
2761;BME280;15420;48.636;9.798;2023-03-13T00:58:59;96237.56;;;7.61;100.00
2761;BME280;15420;48.636;9.798;2023-03-13T01:01:29;96241.03;;;7.63;100.00
2761;BME280;15420;48.636;9.798;2023-03-13T01:03:58;96238.50;;;7.64;100.00
2761;BME280;15420;48.636;9.798;2023-03-13T01:06:29;96240.19;;;7.64;100.00
2761;BME280;15420;48.636;9.798;2023-03-13T01:09:00;96232.47;;;7.62;100.00
2761;BME280;15420;48.636;9.798;2023-03-13T01:11:33;96232.50;;;7.64;100.00
2761;BME280;15420;48.636;9.798;2023-03-13T01:14:02;96230.69;;;7.60;100.00
2761;BME280;15420;48.636;9.798;2023-03-13T01:16:35;96221.31;;;7.60;100.00
2761;BME280;15420;48.636;9.798;2023-03-13T01:19:07;96217.88;;;7.60;100.00
2761;BME280;15420;48.636;9.798;2023-03-13T01:21:37;96217.91;;;7.61;100.00
2761;BME280;15420;48.636;9.798;2023-03-13T01:24:06;96210.16;;;7.58;100.00
2761;BME280;15420;48.636;9.798;2023-03-13T01:26:34;96210.97;;;7.55;100.00
2761;BME280;15420;48.636;9.798;2023-03-13T01:29:03;96207.63;;;7.60;100.00
2761;BME280;15420;48.636;9.798;2023-03-13T01:31:32;96188.81;;;7.59;100.00
2761;BME280;15420;48.636;9.798;2023-03-13T01:34:01;96197.41;;;7.61;100.00
2761;BME280;15420;48.636;9.798;2023-03-13T01:36:31;96187.13;;;7.60;100.00
2761;BME280;15420;48.636;9.798;2023-03-13T01:39:00;96190.63;;;7.63;100.00
2761;BME280;15420;48.636;9.798;2023-03-13T01:41:30;96187.25;;;7.66;100.00
2761;BME280;15420;48.636;9.798;2023-03-13T01:43:56;96177.88;;;7.66;100.00
2761;BME280;15420;48.636;9.798;2023-03-13T01:46:27;96172.75;;;7.66;100.00
2761;BME280;15420;48.636;9.798;2023-03-13T01:49:08;96173.56;;;7.65;100.00
2761;BME280;15420;48.636;9.798;2023-03-13T01:52:02;96174.41;;;7.64;100.00
2761;BME280;15420;48.636;9.798;2023-03-13T01:54:36;96167.59;;;7.65;100.00
2761;BME280;15420;48.636;9.798;2023-03-13T02:00:04;96170.97;;;7.64;100.00
2761;BME280;15420;48.636;9.798;2023-03-13T02:02:31;96161.50;;;7.60;100.00
2761;BME280;15420;48.636;9.798;2023-03-13T02:05:03;96156.38;;;7.60;100.00
2761;BME280;15420;48.636;9.798;2023-03-13T02:07:44;96152.88;;;7.56;100.00
2761;BME280;15420;48.636;9.798;2023-03-13T02:10:14;96152.03;;;7.57;100.00
2761;BME280;15420;48.636;9.798;2023-03-13T02:12:43;96152.00;;;7.55;100.00
2761;BME280;15420;48.636;9.798;2023-03-13T02:15:19;96147.81;;;7.59;100.00
2761;BME280;15420;48.636;9.798;2023-03-13T02:17:48;96137.56;;;7.59;100.00
2761;BME280;15420;48.636;9.798;2023-03-13T02:25:41;96134.22;;;7.63;100.00
2761;BME280;15420;48.636;9.798;2023-03-13T02:28:22;96129.97;;;7.64;100.00
2761;BME280;15420;48.636;9.798;2023-03-13T02:30:54;96123.13;;;7.64;100.00
2761;BME280;15420;48.636;9.798;2023-03-13T02:33:21;96125.69;;;7.64;100.00
2761;BME280;15420;48.636;9.798;2023-03-13T02:35:51;96118.03;;;7.66;100.00
2761;BME280;15420;48.636;9.798;2023-03-13T02:38:24;96122.34;;;7.67;100.00
2761;BME280;15420;48.636;9.798;2023-03-13T02:40:56;96106.13;;;7.68;100.00
2761;BME280;15420;48.636;9.798;2023-03-13T02:43:31;96107.06;;;7.71;100.00
2761;BME280;15420;48.636;9.798;2023-03-13T02:46:12;96113.09;;;7.75;100.00
2761;BME280;15420;48.636;9.798;2023-03-13T02:49:07;96114.00;;;7.77;100.00
2761;BME280;15420;48.636;9.798;2023-03-13T02:51:50;96119.09;;;7.75;100.00
2761;BME280;15420;48.636;9.798;2023-03-13T02:54:32;96112.31;;;7.77;100.00
2761;BME280;15420;48.636;9.798;2023-03-13T02:57:04;96106.38;;;7.80;100.00
2761;BME280;15420;48.636;9.798;2023-03-13T02:59:34;96107.25;;;7.80;100.00
2761;BME280;15420;48.636;9.798;2023-03-13T03:02:00;96109.81;;;7.80;100.00
2761;BME280;15420;48.636;9.798;2023-03-13T03:04:29;96099.56;;;7.80;100.00
2761;BME280;15420;48.636;9.798;2023-03-13T03:06:55;96091.91;;;7.83;100.00
2761;BME280;15420;48.636;9.798;2023-03-13T03:09:22;96090.19;;;7.82;100.00
2761;BME280;15420;48.636;9.798;2023-03-13T03:11:49;96079.97;;;7.84;100.00
2761;BME280;15420;48.636;9.798;2023-03-13T03:14:15;96076.59;;;7.86;100.00
2761;BME280;15420;48.636;9.798;2023-03-13T03:16:47;96068.97;;;7.90;100.00
2761;BME280;15420;48.636;9.798;2023-03-13T03:19:15;96073.22;;;7.89;100.00
2761;BME280;15420;48.636;9.798;2023-03-13T03:21:47;96074.13;;;7.91;100.00
2761;BME280;15420;48.636;9.798;2023-03-13T03:24:14;96064.72;;;7.92;100.00
2761;BME280;15420;48.636;9.798;2023-03-13T03:26:40;96063.03;;;7.92;100.00
2761;BME280;15420;48.636;9.798;2023-03-13T03:29:07;96064.75;;;7.93;100.00
2761;BME280;15420;48.636;9.798;2023-03-13T03:31:36;96047.69;;;7.95;100.00
2761;BME280;15420;48.636;9.798;2023-03-13T03:34:04;96031.44;;;7.95;100.00
2761;BME280;15420;48.636;9.798;2023-03-13T03:36:33;96028.03;;;7.96;100.00
2761;BME280;15420;48.636;9.798;2023-03-13T03:38:59;96023.78;;;7.96;100.00
2761;BME280;15420;48.636;9.798;2023-03-13T03:41:28;96034.09;;;7.99;100.00
2761;BME280;15420;48.636;9.798;2023-03-13T03:43:54;96025.53;;;7.99;100.00
2761;BME280;15420;48.636;9.798;2023-03-13T03:46:20;96021.28;;;8.01;100.00
2761;BME280;15420;48.636;9.798;2023-03-13T03:48:49;96028.19;;;8.03;100.00
2761;BME280;15420;48.636;9.798;2023-03-13T03:51:15;96018.75;;;8.02;100.00
2761;BME280;15420;48.636;9.798;2023-03-13T03:53:41;96018.78;;;8.04;100.00
2761;BME280;15420;48.636;9.798;2023-03-13T03:56:08;96016.28;;;8.07;100.00
2761;BME280;15420;48.636;9.798;2023-03-13T03:58:36;96012.03;;;8.09;100.00
2761;BME280;15420;48.636;9.798;2023-03-13T04:01:08;96005.22;;;8.11;100.00
2761;BME280;15420;48.636;9.798;2023-03-13T04:03:34;95996.72;;;8.13;100.00
2761;BME280;15420;48.636;9.798;2023-03-13T04:06:00;95997.66;;;8.17;100.00
2761;BME280;15420;48.636;9.798;2023-03-13T04:08:29;95999.34;;;8.16;100.00
2761;BME280;15420;48.636;9.798;2023-03-13T04:10:59;95995.97;;;8.19;100.00
2761;BME280;15420;48.636;9.798;2023-03-13T04:13:25;95991.69;;;8.19;100.00
2761;BME280;15420;48.636;9.798;2023-03-13T04:15:51;95989.09;;;8.18;100.00
2761;BME280;15420;48.636;9.798;2023-03-13T04:18:17;95990.03;;;8.22;100.00
2761;BME280;15420;48.636;9.798;2023-03-13T04:20:43;95980.69;;;8.25;100.00
2761;BME280;15420;48.636;9.798;2023-03-13T04:23:10;95987.56;;;8.28;100.00
2761;BME280;15420;48.636;9.798;2023-03-13T04:25:36;95986.75;;;8.30;100.00
2761;BME280;15420;48.636;9.798;2023-03-13T04:28:03;95984.22;;;8.32;100.00
2761;BME280;15420;48.636;9.798;2023-03-13T04:30:31;95987.66;;;8.34;100.00
2761;BME280;15420;48.636;9.798;2023-03-13T04:32:57;95991.97;;;8.35;100.00
2761;BME280;15420;48.636;9.798;2023-03-13T04:35:29;95991.13;;;8.36;100.00
2761;BME280;15420;48.636;9.798;2023-03-13T04:37:59;95994.56;;;8.36;100.00
2761;BME280;15420;48.636;9.798;2023-03-13T04:40:29;95984.34;;;8.39;100.00
2761;BME280;15420;48.636;9.798;2023-03-13T04:42:55;95980.94;;;8.40;100.00
2761;BME280;15420;48.636;9.798;2023-03-13T04:45:22;95979.22;;;8.41;100.00
2761;BME280;15420;48.636;9.798;2023-03-13T04:47:52;95975.78;;;8.40;100.00
2761;BME280;15420;48.636;9.798;2023-03-13T04:50:19;95980.94;;;8.40;100.00
2761;BME280;15420;48.636;9.798;2023-03-13T04:52:45;95974.09;;;8.41;100.00
2761;BME280;15420;48.636;9.798;2023-03-13T04:55:13;95964.69;;;8.41;100.00
2761;BME280;15420;48.636;9.798;2023-03-13T04:57:42;95958.72;;;8.42;100.00
2761;BME280;15420;48.636;9.798;2023-03-13T05:00:11;95962.16;;;8.44;100.00
2761;BME280;15420;48.636;9.798;2023-03-13T05:02:37;95956.19;;;8.45;100.00
2761;BME280;15420;48.636;9.798;2023-03-13T05:05:03;95966.50;;;8.47;100.00
2761;BME280;15420;48.636;9.798;2023-03-13T05:07:32;95958.84;;;8.50;100.00
2761;BME280;15420;48.636;9.798;2023-03-13T05:09:58;95954.59;;;8.52;100.00
2761;BME280;15420;48.636;9.798;2023-03-13T05:12:27;95948.63;;;8.55;100.00
2761;BME280;15420;48.636;9.798;2023-03-13T05:14:55;95944.38;;;8.57;100.00
2761;BME280;15420;48.636;9.798;2023-03-13T05:17:26;95954.72;;;8.60;100.00
2761;BME280;15420;48.636;9.798;2023-03-13T05:19:52;95955.59;;;8.62;100.00
2761;BME280;15420;48.636;9.798;2023-03-13T05:22:19;95954.78;;;8.64;100.00
2761;BME280;15420;48.636;9.798;2023-03-13T05:24:45;95955.69;;;8.68;100.00
2761;BME280;15420;48.636;9.798;2023-03-13T05:27:11;95948.84;;;8.68;100.00
2761;BME280;15420;48.636;9.798;2023-03-13T05:29:39;95956.56;;;8.70;100.00
2761;BME280;15420;48.636;9.798;2023-03-13T05:32:06;95954.03;;;8.71;100.00
2761;BME280;15420;48.636;9.798;2023-03-13T05:34:32;95956.63;;;8.73;100.00
2761;BME280;15420;48.636;9.798;2023-03-13T05:36:58;95963.50;;;8.75;100.00
2761;BME280;15420;48.636;9.798;2023-03-13T05:39:28;95968.69;;;8.78;100.00
2761;BME280;15420;48.636;9.798;2023-03-13T05:41:54;95958.44;;;8.80;100.00
2761;BME280;15420;48.636;9.798;2023-03-13T05:44:20;95962.72;;;8.81;100.00
2761;BME280;15420;48.636;9.798;2023-03-13T05:46:49;95952.50;;;8.84;100.00
2761;BME280;15420;48.636;9.798;2023-03-13T05:49:15;95955.09;;;8.87;100.00
2761;BME280;15420;48.636;9.798;2023-03-13T05:51:45;95960.25;;;8.89;100.00
2761;BME280;15420;48.636;9.798;2023-03-13T05:54:11;95956.03;;;8.92;100.00
2761;BME280;15420;48.636;9.798;2023-03-13T05:56:46;95950.06;;;8.95;100.00
2761;BME280;15420;48.636;9.798;2023-03-13T05:59:13;95944.97;;;8.96;100.00
2761;BME280;15420;48.636;9.798;2023-03-13T06:01:39;95942.44;;;8.99;100.00
2761;BME280;15420;48.636;9.798;2023-03-13T06:04:06;95947.59;;;9.02;100.00
2761;BME280;15420;48.636;9.798;2023-03-13T06:06:34;95953.66;;;9.06;100.00
2761;BME280;15420;48.636;9.798;2023-03-13T06:09:00;95938.25;;;9.07;100.00
2761;BME280;15420;48.636;9.798;2023-03-13T06:11:30;95932.31;;;9.11;100.00
2761;BME280;15420;48.636;9.798;2023-03-13T06:13:57;95935.75;;;9.13;100.00
2761;BME280;15420;48.636;9.798;2023-03-13T06:16:23;95943.50;;;9.16;100.00
2761;BME280;15420;48.636;9.798;2023-03-13T06:18:51;95940.13;;;9.19;100.00
2761;BME280;15420;48.636;9.798;2023-03-13T06:21:17;95929.84;;;9.21;100.00
2761;BME280;15420;48.636;9.798;2023-03-13T06:23:43;95933.31;;;9.24;100.00
2761;BME280;15420;48.636;9.798;2023-03-13T06:26:14;95926.50;;;9.26;100.00
2761;BME280;15420;48.636;9.798;2023-03-13T06:28:41;95934.25;;;9.31;100.00
2761;BME280;15420;48.636;9.798;2023-03-13T06:31:09;95942.88;;;9.34;100.00
2761;BME280;15420;48.636;9.798;2023-03-13T06:33:38;95936.03;;;9.35;100.00
2761;BME280;15420;48.636;9.798;2023-03-13T06:36:04;95930.03;;;9.37;100.00
2761;BME280;15420;48.636;9.798;2023-03-13T06:38:34;95921.47;;;9.40;100.00
2761;BME280;15420;48.636;9.798;2023-03-13T06:41:03;95918.94;;;9.43;100.00
2761;BME280;15420;48.636;9.798;2023-03-13T06:43:32;95919.84;;;9.46;100.00
2761;BME280;15420;48.636;9.798;2023-03-13T06:46:03;95930.19;;;9.51;100.00
2761;BME280;15420;48.636;9.798;2023-03-13T06:48:30;95924.22;;;9.55;100.00
2761;BME280;15420;48.636;9.798;2023-03-13T06:50:56;95923.41;;;9.58;100.00
2761;BME280;15420;48.636;9.798;2023-03-13T06:53:22;95924.28;;;9.61;100.00
2761;BME280;15420;48.636;9.798;2023-03-13T06:55:51;95927.78;;;9.66;100.00
2761;BME280;15420;48.636;9.798;2023-03-13T06:58:17;95922.66;;;9.69;100.00
2761;BME280;15420;48.636;9.798;2023-03-13T07:00:45;95924.41;;;9.73;100.00
2761;BME280;15420;48.636;9.798;2023-03-13T07:03:12;95909.00;;;9.76;100.00
2761;BME280;15420;48.636;9.798;2023-03-13T07:05:39;95926.22;;;9.80;100.00
2761;BME280;15420;48.636;9.798;2023-03-13T07:08:05;95921.94;;;9.84;100.00
2761;BME280;15420;48.636;9.798;2023-03-13T07:10:31;95920.28;;;9.89;100.00
2761;BME280;15420;48.636;9.798;2023-03-13T07:13:02;95913.47;;;9.93;100.00
2761;BME280;15420;48.636;9.798;2023-03-13T07:15:28;95920.34;;;9.97;100.00
2761;BME280;15420;48.636;9.798;2023-03-13T07:17:56;95922.09;;;10.01;100.00
2761;BME280;15420;48.636;9.798;2023-03-13T07:20:23;95903.28;;;10.05;100.00
2761;BME280;15420;48.636;9.798;2023-03-13T07:22:52;95903.31;;;10.09;100.00
2761;BME280;15420;48.636;9.798;2023-03-13T07:25:18;95914.50;;;10.13;100.00
2761;BME280;15420;48.636;9.798;2023-03-13T07:27:50;95923.19;;;10.21;100.00
2761;BME280;15420;48.636;9.798;2023-03-13T07:30:17;95925.78;;;10.26;100.00
2761;BME280;15420;48.636;9.798;2023-03-13T07:32:46;95922.41;;;10.30;100.00
2761;BME280;15420;48.636;9.798;2023-03-13T07:35:14;95929.31;;;10.35;100.00
2761;BME280;15420;48.636;9.798;2023-03-13T07:37:41;95940.47;;;10.40;100.00
2761;BME280;15420;48.636;9.798;2023-03-13T07:40:10;95932.81;;;10.48;100.00
2761;BME280;15420;48.636;9.798;2023-03-13T07:42:39;95939.69;;;10.52;100.00
2761;BME280;15420;48.636;9.798;2023-03-13T07:45:07;95928.56;;;10.58;100.00
2761;BME280;15420;48.636;9.798;2023-03-13T07:47:36;95944.09;;;10.65;100.00
2761;BME280;15420;48.636;9.798;2023-03-13T07:50:05;95938.13;;;10.72;100.00
2761;BME280;15420;48.636;9.798;2023-03-13T07:52:38;95926.16;;;10.80;100.00
2761;BME280;15420;48.636;9.798;2023-03-13T07:55:04;95932.19;;;10.84;100.00
2761;BME280;15420;48.636;9.798;2023-03-13T07:57:34;95919.34;;;10.92;100.00
2761;BME280;15420;48.636;9.798;2023-03-13T08:00:00;95923.66;;;10.97;100.00
2761;BME280;15420;48.636;9.798;2023-03-13T08:02:28;95923.69;;;11.03;100.00
2761;BME280;15420;48.636;9.798;2023-03-13T08:04:55;95928.03;;;11.09;100.00
2761;BME280;15420;48.636;9.798;2023-03-13T08:07:21;95915.19;;;11.17;100.00
2761;BME280;15420;48.636;9.798;2023-03-13T08:09:47;95922.94;;;11.23;100.00
2761;BME280;15420;48.636;9.798;2023-03-13T08:12:15;95917.81;;;11.30;100.00
2761;BME280;15420;48.636;9.798;2023-03-13T08:14:43;95915.25;;;11.38;100.00
2761;BME280;15420;48.636;9.798;2023-03-13T08:17:12;95912.69;;;11.45;100.00
2761;BME280;15420;48.636;9.798;2023-03-13T08:19:38;95903.25;;;11.54;100.00
2761;BME280;15420;48.636;9.798;2023-03-13T08:22:06;95889.50;;;11.62;100.00
2761;BME280;15420;48.636;9.798;2023-03-13T08:24:33;95882.66;;;11.70;100.00
2761;BME280;15420;48.636;9.798;2023-03-13T08:27:04;95874.91;;;11.76;100.00
2761;BME280;15420;48.636;9.798;2023-03-13T08:29:32;95879.25;;;11.84;100.00
2761;BME280;15420;48.636;9.798;2023-03-13T08:32:01;95884.44;;;11.90;100.00
2761;BME280;15420;48.636;9.798;2023-03-13T08:34:27;95873.25;;;11.97;100.00
2761;BME280;15420;48.636;9.798;2023-03-13T08:36:53;95876.69;;;12.05;100.00
2761;BME280;15420;48.636;9.798;2023-03-13T08:39:23;95874.13;;;12.13;100.00
2761;BME280;15420;48.636;9.798;2023-03-13T08:41:51;95859.47;;;12.21;100.00
2761;BME280;15420;48.636;9.798;2023-03-13T08:44:18;95846.56;;;12.28;100.00
2761;BME280;15420;48.636;9.798;2023-03-13T08:46:47;95881.88;;;12.37;100.00
2761;BME280;15420;48.636;9.798;2023-03-13T08:49:21;95848.25;;;12.46;100.00
2761;BME280;15420;48.636;9.798;2023-03-13T08:51:47;95850.81;;;12.52;100.00
2761;BME280;15420;48.636;9.798;2023-03-13T08:54:16;95861.97;;;12.62;100.00
2761;BME280;15420;48.636;9.798;2023-03-13T08:56:44;95863.69;;;12.69;100.00
2761;BME280;15420;48.636;9.798;2023-03-13T08:59:11;95840.41;;;12.76;100.00
2761;BME280;15420;48.636;9.798;2023-03-13T09:01:37;95842.09;;;12.85;100.00
2761;BME280;15420;48.636;9.798;2023-03-13T09:04:04;95862.78;;;12.93;100.00
2761;BME280;15420;48.636;9.798;2023-03-13T09:06:34;95846.38;;;13.01;100.00
2761;BME280;15420;48.636;9.798;2023-03-13T09:09:03;95835.13;;;13.12;100.00
2761;BME280;15420;48.636;9.798;2023-03-13T09:11:30;95826.50;;;13.19;100.00
2761;BME280;15420;48.636;9.798;2023-03-13T09:14:03;95840.25;;;13.28;100.00
2761;BME280;15420;48.636;9.798;2023-03-13T09:16:31;95822.97;;;13.36;100.00
2761;BME280;15420;48.636;9.798;2023-03-13T09:19:02;95821.19;;;13.46;100.00
2761;BME280;15420;48.636;9.798;2023-03-13T09:21:33;95840.06;;;13.54;100.00
2761;BME280;15420;48.636;9.798;2023-03-13T09:24:02;95835.69;;;13.64;100.00
2761;BME280;15420;48.636;9.798;2023-03-13T09:26:28;95837.38;;;13.72;100.00
2761;BME280;15420;48.636;9.798;2023-03-13T09:28:57;95833.00;;;13.81;100.00
2761;BME280;15420;48.636;9.798;2023-03-13T09:31:26;95839.00;;;13.86;100.00
2761;BME280;15420;48.636;9.798;2023-03-13T09:33:53;95835.50;;;13.94;100.00
2761;BME280;15420;48.636;9.798;2023-03-13T09:36:22;95841.47;;;14.01;100.00
2761;BME280;15420;48.636;9.798;2023-03-13T09:38:49;95844.03;;;14.07;100.00
2761;BME280;15420;48.636;9.798;2023-03-13T09:44:19;95831.81;;;14.20;100.00
2761;BME280;15420;48.636;9.798;2023-03-13T09:49:22;95833.41;;;14.36;100.00
2761;BME280;15420;48.636;9.798;2023-03-13T09:51:59;95830.78;;;14.45;100.00
2761;BME280;15420;48.636;9.798;2023-03-13T09:54:36;95828.97;;;14.52;100.00
2761;BME280;15420;48.636;9.798;2023-03-13T10:00:28;95820.13;;;14.69;100.00
2761;BME280;15420;48.636;9.798;2023-03-13T10:06:01;95832.78;;;14.95;100.00
2761;BME280;15420;48.636;9.798;2023-03-13T10:08:35;95844.81;;;15.04;99.02
2761;BME280;15420;48.636;9.798;2023-03-13T10:11:25;95847.28;;;15.15;97.53
2761;BME280;15420;48.636;9.798;2023-03-13T10:14:03;95840.19;;;15.27;97.04
2761;BME280;15420;48.636;9.798;2023-03-13T10:19:36;95847.81;;;15.40;94.06
2761;BME280;15420;48.636;9.798;2023-03-13T10:22:13;95845.16;;;15.46;94.12
2761;BME280;15420;48.636;9.798;2023-03-13T10:24:45;95843.28;;;15.55;93.24
2761;BME280;15420;48.636;9.798;2023-03-13T10:27:17;95835.41;;;15.63;92.80
2761;BME280;15420;48.636;9.798;2023-03-13T10:29:43;95841.34;;;15.71;91.50
2761;BME280;15420;48.636;9.798;2023-03-13T10:32:13;95843.88;;;15.76;91.10
2761;BME280;15420;48.636;9.798;2023-03-13T10:37:39;95841.84;;;15.94;90.03
2761;BME280;15420;48.636;9.798;2023-03-13T10:40:26;95846.13;;;15.98;88.49
2761;BME280;15420;48.636;9.798;2023-03-13T10:43:00;95833.16;;;15.97;88.52
2761;BME280;15420;48.636;9.798;2023-03-13T10:45:34;95817.50;;;16.00;89.56
2761;BME280;15420;48.636;9.798;2023-03-13T10:50:45;95810.38;;;16.13;89.04
2761;BME280;15420;48.636;9.798;2023-03-13T10:55:52;95791.88;;;16.31;87.24
2761;BME280;15420;48.636;9.798;2023-03-13T10:58:34;95776.13;;;16.39;87.26
2761;BME280;15420;48.636;9.798;2023-03-13T11:03:42;95765.50;;;16.52;86.68
2761;BME280;15420;48.636;9.798;2023-03-13T11:08:58;95768.53;;;16.74;84.52
2761;BME280;15420;48.636;9.798;2023-03-13T11:11:24;95759.78;;;16.78;84.32
2761;BME280;15420;48.636;9.798;2023-03-13T11:14:11;95745.66;;;16.90;84.08
2761;BME280;15420;48.636;9.798;2023-03-13T11:19:29;95724.72;;;16.96;82.58
2761;BME280;15420;48.636;9.798;2023-03-13T11:28:08;95714.50;;;17.27;79.99
2761;BME280;15420;48.636;9.798;2023-03-13T11:30:48;95713.53;;;17.31;79.57
2761;BME280;15420;48.636;9.798;2023-03-13T11:38:42;95706.03;;;17.56;78.43
2761;BME280;15420;48.636;9.798;2023-03-13T11:41:42;95701.47;;;17.66;76.95
2761;BME280;15420;48.636;9.798;2023-03-13T11:44:44;95692.44;;;17.79;76.48
2761;BME280;15420;48.636;9.798;2023-03-13T11:50:18;95685.00;;;17.97;74.69
2761;BME280;15420;48.636;9.798;2023-03-13T12:01:25;95663.34;;;18.60;73.62
2761;BME280;15420;48.636;9.798;2023-03-13T12:04:00;95660.94;;;18.82;72.78
2761;BME280;15420;48.636;9.798;2023-03-13T12:06:36;95644.72;;;19.01;72.52
2761;BME280;15420;48.636;9.798;2023-03-13T12:09:59;95639.53;;;19.27;72.10
2761;BME280;15420;48.636;9.798;2023-03-13T12:14:57;95613.50;;;19.77;70.68
2761;BME280;15420;48.636;9.798;2023-03-13T12:20:27;95598.09;;;20.19;68.12
2761;BME280;15420;48.636;9.798;2023-03-13T12:25:45;95589.72;;;20.58;66.24
2761;BME280;15420;48.636;9.798;2023-03-13T12:31:40;95565.50;;;20.96;64.22
2761;BME280;15420;48.636;9.798;2023-03-13T12:34:49;95570.06;;;21.13;64.40
2761;BME280;15420;48.636;9.798;2023-03-13T12:37:27;95557.97;;;21.32;63.03
2761;BME280;15420;48.636;9.798;2023-03-13T12:40:03;95548.44;;;21.51;62.13
2761;BME280;15420;48.636;9.798;2023-03-13T12:42:50;95540.72;;;21.69;61.38
2761;BME280;15420;48.636;9.798;2023-03-13T12:45:21;95532.16;;;21.84;60.74
2761;BME280;15420;48.636;9.798;2023-03-13T12:53:28;95512.06;;;22.42;58.96
2761;BME280;15420;48.636;9.798;2023-03-13T12:59:14;95492.84;;;22.79;56.90
2761;BME280;15420;48.636;9.798;2023-03-13T13:01:48;95499.72;;;22.99;55.06
2761;BME280;15420;48.636;9.798;2023-03-13T13:04:21;95490.09;;;23.17;55.66
2761;BME280;15420;48.636;9.798;2023-03-13T13:07:17;95480.53;;;23.33;54.46
2761;BME280;15420;48.636;9.798;2023-03-13T13:12:27;95463.22;;;23.64;52.61
2761;BME280;15420;48.636;9.798;2023-03-13T13:14:58;95465.13;;;23.77;51.39
2761;BME280;15420;48.636;9.798;2023-03-13T13:20:31;95433.91;;;24.03;47.71
2761;BME280;15420;48.636;9.798;2023-03-13T13:23:36;95427.31;;;24.11;47.81
2761;BME280;15420;48.636;9.798;2023-03-13T13:37:23;95395.81;;;24.73;43.29
2761;BME280;15420;48.636;9.798;2023-03-13T13:39:51;95389.16;;;24.82;43.43
2761;BME280;15420;48.636;9.798;2023-03-13T13:47:44;95373.28;;;25.27;42.62
2761;BME280;15420;48.636;9.798;2023-03-13T13:50:23;95358.91;;;25.47;42.46
2761;BME280;15420;48.636;9.798;2023-03-13T13:52:56;95360.31;;;25.53;41.21
2761;BME280;15420;48.636;9.798;2023-03-13T13:58:22;95363.00;;;25.67;40.72
2761;BME280;15420;48.636;9.798;2023-03-13T14:01:00;95350.91;;;25.63;40.43
2761;BME280;15420;48.636;9.798;2023-03-13T14:03:38;95355.81;;;25.55;40.98
2761;BME280;15420;48.636;9.798;2023-03-13T14:06:20;95353.53;;;25.49;41.65
2761;BME280;15420;48.636;9.798;2023-03-13T14:08:50;95350.88;;;25.34;42.94
2761;BME280;15420;48.636;9.798;2023-03-13T14:11:31;95341.75;;;25.26;42.43
2761;BME280;15420;48.636;9.798;2023-03-13T14:14:17;95341.34;;;25.18;43.32
2761;BME280;15420;48.636;9.798;2023-03-13T14:16:51;95332.00;;;24.98;43.65
2761;BME280;15420;48.636;9.798;2023-03-13T14:19:32;95335.25;;;24.87;43.71
2761;BME280;15420;48.636;9.798;2023-03-13T14:22:06;95319.13;;;24.77;43.58
2761;BME280;15420;48.636;9.798;2023-03-13T14:24:33;95328.25;;;24.72;44.71
2761;BME280;15420;48.636;9.798;2023-03-13T14:27:00;95330.22;;;24.68;44.18
2761;BME280;15420;48.636;9.798;2023-03-13T14:29:27;95311.00;;;24.66;44.74
2761;BME280;15420;48.636;9.798;2023-03-13T14:31:56;95300.38;;;24.68;44.81
2761;BME280;15420;48.636;9.798;2023-03-13T14:34:27;95300.56;;;24.65;45.14
2761;BME280;15420;48.636;9.798;2023-03-13T14:36:54;95309.25;;;24.51;44.59
2761;BME280;15420;48.636;9.798;2023-03-13T14:39:37;95300.84;;;24.44;44.52
2761;BME280;15420;48.636;9.798;2023-03-13T14:42:12;95304.59;;;24.40;45.79
2761;BME280;15420;48.636;9.798;2023-03-13T14:44:40;95298.66;;;24.37;45.90
2761;BME280;15420;48.636;9.798;2023-03-13T14:47:24;95294.50;;;24.33;44.99
2761;BME280;15420;48.636;9.798;2023-03-13T14:50:03;95290.66;;;24.23;46.80
2761;BME280;15420;48.636;9.798;2023-03-13T14:52:42;95297.13;;;24.17;46.84
2761;BME280;15420;48.636;9.798;2023-03-13T14:58:02;95278.38;;;24.07;46.47
2761;BME280;15420;48.636;9.798;2023-03-13T15:00:44;95261.66;;;23.93;47.21
2761;BME280;15420;48.636;9.798;2023-03-13T15:08:34;95246.72;;;23.46;47.82
2761;BME280;15420;48.636;9.798;2023-03-13T15:11:00;95238.47;;;23.36;48.06
2761;BME280;15420;48.636;9.798;2023-03-13T15:13:33;95221.25;;;23.31;48.56
2761;BME280;15420;48.636;9.798;2023-03-13T15:15:59;95217.16;;;23.25;49.15
2761;BME280;15420;48.636;9.798;2023-03-13T15:18:36;95209.09;;;23.12;48.68
2761;BME280;15420;48.636;9.798;2023-03-13T15:23:49;95209.31;;;22.92;49.55
2761;BME280;15420;48.636;9.798;2023-03-13T15:26:19;95197.53;;;22.83;49.99
2761;BME280;15420;48.636;9.798;2023-03-13T15:28:46;95191.72;;;22.77;49.95